sensor_id;sensor_type;location;lat;lon;timestamp;P1;durP1;ratioP1;P2;durP2;ratioP2
53925;SDS011;39836;52.754;6.866;2023-08-06T08:16:04;16.27;;;12.93;;
53925;SDS011;39836;52.754;6.866;2023-08-06T10:10:58;9.95;;;6.50;;
53925;SDS011;39836;52.754;6.866;2023-08-06T10:22:08;7.72;;;6.32;;
53925;SDS011;39836;52.754;6.866;2023-08-06T10:27:30;7.72;;;6.43;;
53925;SDS011;39836;52.754;6.866;2023-08-06T10:32:48;9.40;;;6.05;;
53925;SDS011;39836;52.754;6.866;2023-08-06T10:35:36;10.00;;;5.38;;
53925;SDS011;39836;52.754;6.866;2023-08-06T10:40:43;11.73;;;5.70;;
53925;SDS011;39836;52.754;6.866;2023-08-06T10:43:29;8.70;;;5.97;;
53925;SDS011;39836;52.754;6.866;2023-08-06T10:45:58;7.95;;;5.13;;
53925;SDS011;39836;52.754;6.866;2023-08-06T10:48:46;7.63;;;4.93;;
53925;SDS011;39836;52.754;6.866;2023-08-06T10:51:11;11.95;;;5.07;;
53925;SDS011;39836;52.754;6.866;2023-08-06T10:53:41;6.88;;;4.80;;
53925;SDS011;39836;52.754;6.866;2023-08-06T10:56:21;10.82;;;4.85;;
53925;SDS011;39836;52.754;6.866;2023-08-06T10:58:48;8.52;;;4.53;;
53925;SDS011;39836;52.754;6.866;2023-08-06T11:01:15;7.55;;;5.15;;
53925;SDS011;39836;52.754;6.866;2023-08-06T11:03:42;6.88;;;4.68;;
53925;SDS011;39836;52.754;6.866;2023-08-06T11:06:09;6.20;;;4.60;;
53925;SDS011;39836;52.754;6.866;2023-08-06T11:08:40;7.28;;;4.32;;
53925;SDS011;39836;52.754;6.866;2023-08-06T11:11:12;5.93;;;4.07;;
53925;SDS011;39836;52.754;6.866;2023-08-06T11:13:40;6.38;;;4.57;;
53925;SDS011;39836;52.754;6.866;2023-08-06T11:16:06;8.30;;;4.65;;
53925;SDS011;39836;52.754;6.866;2023-08-06T11:18:32;9.95;;;4.70;;
53925;SDS011;39836;52.754;6.866;2023-08-06T11:20:59;8.77;;;4.05;;
53925;SDS011;39836;52.754;6.866;2023-08-06T11:23:26;6.20;;;3.78;;
53925;SDS011;39836;52.754;6.866;2023-08-06T11:25:54;7.35;;;3.70;;
53925;SDS011;39836;52.754;6.866;2023-08-06T11:28:20;5.80;;;3.25;;
53925;SDS011;39836;52.754;6.866;2023-08-06T11:30:47;6.43;;;3.42;;
53925;SDS011;39836;52.754;6.866;2023-08-06T11:33:13;5.65;;;3.70;;
53925;SDS011;39836;52.754;6.866;2023-08-06T11:35:38;4.97;;;3.30;;
53925;SDS011;39836;52.754;6.866;2023-08-06T11:38:05;6.60;;;3.53;;
53925;SDS011;39836;52.754;6.866;2023-08-06T11:40:31;4.78;;;3.22;;
53925;SDS011;39836;52.754;6.866;2023-08-06T11:42:58;6.20;;;3.30;;
53925;SDS011;39836;52.754;6.866;2023-08-06T11:45:24;4.97;;;3.38;;
53925;SDS011;39836;52.754;6.866;2023-08-06T11:47:50;6.47;;;3.90;;
53925;SDS011;39836;52.754;6.866;2023-08-06T11:50:24;5.82;;;3.70;;
53925;SDS011;39836;52.754;6.866;2023-08-06T11:52:58;3.95;;;2.97;;
53925;SDS011;39836;52.754;6.866;2023-08-06T11:55:25;4.28;;;2.75;;
53925;SDS011;39836;52.754;6.866;2023-08-06T11:57:53;4.45;;;3.28;;
53925;SDS011;39836;52.754;6.866;2023-08-06T12:00:19;5.15;;;3.38;;
53925;SDS011;39836;52.754;6.866;2023-08-06T12:02:48;5.22;;;3.00;;
53925;SDS011;39836;52.754;6.866;2023-08-06T12:05:22;3.70;;;2.60;;
53925;SDS011;39836;52.754;6.866;2023-08-06T12:07:52;5.40;;;3.22;;
53925;SDS011;39836;52.754;6.866;2023-08-06T12:10:21;5.05;;;3.20;;
53925;SDS011;39836;52.754;6.866;2023-08-06T12:12:49;5.88;;;2.97;;
53925;SDS011;39836;52.754;6.866;2023-08-06T12:15:15;5.43;;;2.78;;
53925;SDS011;39836;52.754;6.866;2023-08-06T12:17:41;5.43;;;3.00;;
53925;SDS011;39836;52.754;6.866;2023-08-06T12:20:07;6.15;;;2.72;;
53925;SDS011;39836;52.754;6.866;2023-08-06T12:22:34;4.22;;;2.58;;
53925;SDS011;39836;52.754;6.866;2023-08-06T12:25:04;4.18;;;2.88;;
53925;SDS011;39836;52.754;6.866;2023-08-06T12:27:36;4.45;;;2.47;;
53925;SDS011;39836;52.754;6.866;2023-08-06T12:30:02;10.82;;;2.50;;
53925;SDS011;39836;52.754;6.866;2023-08-06T12:32:29;4.50;;;2.63;;
53925;SDS011;39836;52.754;6.866;2023-08-06T12:34:55;4.40;;;2.95;;
53925;SDS011;39836;52.754;6.866;2023-08-06T12:37:20;5.30;;;3.10;;
53925;SDS011;39836;52.754;6.866;2023-08-06T12:39:46;6.10;;;2.67;;
53925;SDS011;39836;52.754;6.866;2023-08-06T12:42:12;5.07;;;2.65;;
53925;SDS011;39836;52.754;6.866;2023-08-06T12:44:37;5.72;;;2.70;;
53925;SDS011;39836;52.754;6.866;2023-08-06T12:47:03;8.85;;;2.67;;
53925;SDS011;39836;52.754;6.866;2023-08-06T12:49:29;4.60;;;2.75;;
53925;SDS011;39836;52.754;6.866;2023-08-06T12:51:56;4.18;;;2.22;;
53925;SDS011;39836;52.754;6.866;2023-08-06T12:54:24;4.63;;;2.15;;
53925;SDS011;39836;52.754;6.866;2023-08-06T12:56:50;3.38;;;2.25;;
53925;SDS011;39836;52.754;6.866;2023-08-06T12:59:16;4.70;;;2.33;;
53925;SDS011;39836;52.754;6.866;2023-08-06T13:01:43;4.22;;;2.50;;
53925;SDS011;39836;52.754;6.866;2023-08-06T13:04:09;4.63;;;2.70;;
53925;SDS011;39836;52.754;6.866;2023-08-06T13:06:36;4.47;;;2.40;;
53925;SDS011;39836;52.754;6.866;2023-08-06T13:09:02;4.75;;;2.60;;
53925;SDS011;39836;52.754;6.866;2023-08-06T13:11:29;9.98;;;2.90;;
53925;SDS011;39836;52.754;6.866;2023-08-06T13:13:59;6.13;;;2.35;;
53925;SDS011;39836;52.754;6.866;2023-08-06T13:16:35;4.80;;;2.83;;
53925;SDS011;39836;52.754;6.866;2023-08-06T13:19:03;4.03;;;2.70;;
53925;SDS011;39836;52.754;6.866;2023-08-06T13:21:33;3.60;;;2.38;;
53925;SDS011;39836;52.754;6.866;2023-08-06T13:24:00;4.90;;;2.90;;
53925;SDS011;39836;52.754;6.866;2023-08-06T13:26:27;4.88;;;2.50;;
53925;SDS011;39836;52.754;6.866;2023-08-06T13:28:53;5.63;;;3.00;;
53925;SDS011;39836;52.754;6.866;2023-08-06T13:31:19;5.85;;;2.80;;
53925;SDS011;39836;52.754;6.866;2023-08-06T13:33:45;6.63;;;3.17;;
53925;SDS011;39836;52.754;6.866;2023-08-06T13:36:12;6.00;;;2.88;;
53925;SDS011;39836;52.754;6.866;2023-08-06T13:38:37;4.75;;;3.40;;
53925;SDS011;39836;52.754;6.866;2023-08-06T13:41:03;6.70;;;3.10;;
53925;SDS011;39836;52.754;6.866;2023-08-06T13:43:30;6.30;;;3.22;;
53925;SDS011;39836;52.754;6.866;2023-08-06T13:45:56;8.02;;;2.95;;
53925;SDS011;39836;52.754;6.866;2023-08-06T13:48:22;5.25;;;3.10;;
53925;SDS011;39836;52.754;6.866;2023-08-06T13:50:48;5.50;;;2.90;;
53925;SDS011;39836;52.754;6.866;2023-08-06T13:53:13;3.80;;;2.42;;
53925;SDS011;39836;52.754;6.866;2023-08-06T13:55:39;5.32;;;2.63;;
53925;SDS011;39836;52.754;6.866;2023-08-06T13:58:05;4.43;;;2.60;;
53925;SDS011;39836;52.754;6.866;2023-08-06T14:00:30;3.58;;;2.30;;
53925;SDS011;39836;52.754;6.866;2023-08-06T14:02:56;4.15;;;2.20;;
53925;SDS011;39836;52.754;6.866;2023-08-06T14:05:22;4.55;;;2.10;;
53925;SDS011;39836;52.754;6.866;2023-08-06T14:07:47;5.05;;;2.50;;
53925;SDS011;39836;52.754;6.866;2023-08-06T14:10:13;5.18;;;3.05;;
53925;SDS011;39836;52.754;6.866;2023-08-06T14:12:40;6.95;;;3.53;;
53925;SDS011;39836;52.754;6.866;2023-08-06T14:15:05;6.25;;;2.92;;
53925;SDS011;39836;52.754;6.866;2023-08-06T14:17:31;5.80;;;2.70;;
53925;SDS011;39836;52.754;6.866;2023-08-06T14:19:57;5.30;;;3.08;;
53925;SDS011;39836;52.754;6.866;2023-08-06T14:22:23;5.40;;;2.90;;
53925;SDS011;39836;52.754;6.866;2023-08-06T14:24:48;4.80;;;3.03;;
53925;SDS011;39836;52.754;6.866;2023-08-06T14:27:14;5.22;;;3.40;;
53925;SDS011;39836;52.754;6.866;2023-08-06T14:29:40;5.07;;;3.10;;
53925;SDS011;39836;52.754;6.866;2023-08-06T14:32:05;7.53;;;3.38;;
53925;SDS011;39836;52.754;6.866;2023-08-06T14:34:31;5.97;;;2.80;;
53925;SDS011;39836;52.754;6.866;2023-08-06T14:36:57;5.00;;;2.75;;
53925;SDS011;39836;52.754;6.866;2023-08-06T14:39:24;5.28;;;3.00;;
53925;SDS011;39836;52.754;6.866;2023-08-06T14:41:49;4.55;;;3.00;;
53925;SDS011;39836;52.754;6.866;2023-08-06T14:44:15;4.35;;;2.70;;
53925;SDS011;39836;52.754;6.866;2023-08-06T14:46:41;4.22;;;2.50;;
53925;SDS011;39836;52.754;6.866;2023-08-06T14:49:06;5.95;;;2.78;;
53925;SDS011;39836;52.754;6.866;2023-08-06T14:51:32;5.63;;;2.65;;
53925;SDS011;39836;52.754;6.866;2023-08-06T14:53:58;7.00;;;2.90;;
53925;SDS011;39836;52.754;6.866;2023-08-06T14:56:23;5.47;;;2.78;;
53925;SDS011;39836;52.754;6.866;2023-08-06T14:58:49;4.15;;;2.65;;
53925;SDS011;39836;52.754;6.866;2023-08-06T15:01:15;4.60;;;2.47;;
53925;SDS011;39836;52.754;6.866;2023-08-06T15:03:40;5.93;;;2.50;;
53925;SDS011;39836;52.754;6.866;2023-08-06T15:06:06;4.10;;;2.40;;
53925;SDS011;39836;52.754;6.866;2023-08-06T15:08:32;4.35;;;2.53;;
53925;SDS011;39836;52.754;6.866;2023-08-06T15:10:58;3.15;;;1.95;;
53925;SDS011;39836;52.754;6.866;2023-08-06T15:13:28;3.60;;;2.10;;
53925;SDS011;39836;52.754;6.866;2023-08-06T15:15:54;6.45;;;2.25;;
53925;SDS011;39836;52.754;6.866;2023-08-06T15:18:20;4.78;;;2.20;;
53925;SDS011;39836;52.754;6.866;2023-08-06T15:20:45;4.00;;;2.45;;
53925;SDS011;39836;52.754;6.866;2023-08-06T15:23:11;4.05;;;2.33;;
53925;SDS011;39836;52.754;6.866;2023-08-06T15:25:37;5.70;;;2.10;;
53925;SDS011;39836;52.754;6.866;2023-08-06T15:28:03;6.65;;;2.22;;
53925;SDS011;39836;52.754;6.866;2023-08-06T15:30:29;5.70;;;2.05;;
53925;SDS011;39836;52.754;6.866;2023-08-06T15:32:54;4.63;;;2.10;;
53925;SDS011;39836;52.754;6.866;2023-08-06T15:35:20;3.50;;;2.20;;
53925;SDS011;39836;52.754;6.866;2023-08-06T15:37:46;3.38;;;2.13;;
53925;SDS011;39836;52.754;6.866;2023-08-06T15:40:12;3.72;;;2.20;;
53925;SDS011;39836;52.754;6.866;2023-08-06T15:42:37;6.22;;;2.33;;
53925;SDS011;39836;52.754;6.866;2023-08-06T15:45:03;5.07;;;2.30;;
53925;SDS011;39836;52.754;6.866;2023-08-06T15:47:29;3.22;;;1.90;;
53925;SDS011;39836;52.754;6.866;2023-08-06T15:49:55;5.80;;;2.45;;
53925;SDS011;39836;52.754;6.866;2023-08-06T15:52:21;6.55;;;2.45;;
53925;SDS011;39836;52.754;6.866;2023-08-06T15:54:46;4.13;;;2.22;;
53925;SDS011;39836;52.754;6.866;2023-08-06T15:57:12;5.57;;;2.60;;
53925;SDS011;39836;52.754;6.866;2023-08-06T15:59:37;4.75;;;2.40;;
53925;SDS011;39836;52.754;6.866;2023-08-06T16:02:03;6.57;;;2.45;;
53925;SDS011;39836;52.754;6.866;2023-08-06T16:04:31;5.13;;;2.40;;
53925;SDS011;39836;52.754;6.866;2023-08-06T16:06:57;3.17;;;2.05;;
53925;SDS011;39836;52.754;6.866;2023-08-06T16:09:23;4.53;;;2.22;;
53925;SDS011;39836;52.754;6.866;2023-08-06T16:11:50;3.80;;;2.25;;
53925;SDS011;39836;52.754;6.866;2023-08-06T16:14:17;3.83;;;2.20;;
53925;SDS011;39836;52.754;6.866;2023-08-06T16:16:43;3.83;;;2.42;;
53925;SDS011;39836;52.754;6.866;2023-08-06T16:19:09;4.75;;;2.63;;
53925;SDS011;39836;52.754;6.866;2023-08-06T16:21:35;5.43;;;2.58;;
53925;SDS011;39836;52.754;6.866;2023-08-06T16:24:02;3.95;;;2.20;;
53925;SDS011;39836;52.754;6.866;2023-08-06T16:26:30;4.82;;;2.40;;
53925;SDS011;39836;52.754;6.866;2023-08-06T16:28:56;2.78;;;1.95;;
53925;SDS011;39836;52.754;6.866;2023-08-06T16:31:22;3.85;;;1.95;;
53925;SDS011;39836;52.754;6.866;2023-08-06T16:33:48;3.90;;;2.20;;
53925;SDS011;39836;52.754;6.866;2023-08-06T16:36:14;3.05;;;1.92;;
53925;SDS011;39836;52.754;6.866;2023-08-06T16:38:40;4.82;;;2.50;;
53925;SDS011;39836;52.754;6.866;2023-08-06T16:41:06;4.40;;;1.88;;
53925;SDS011;39836;52.754;6.866;2023-08-06T16:43:32;6.20;;;2.08;;
53925;SDS011;39836;52.754;6.866;2023-08-06T16:45:58;3.60;;;2.30;;
53925;SDS011;39836;52.754;6.866;2023-08-06T16:48:29;4.72;;;2.10;;
53925;SDS011;39836;52.754;6.866;2023-08-06T16:51:11;5.15;;;2.30;;
53925;SDS011;39836;52.754;6.866;2023-08-06T16:53:38;4.00;;;2.10;;
53925;SDS011;39836;52.754;6.866;2023-08-06T16:56:04;4.22;;;2.47;;
53925;SDS011;39836;52.754;6.866;2023-08-06T16:58:48;4.18;;;2.08;;
53925;SDS011;39836;52.754;6.866;2023-08-06T17:01:14;4.60;;;2.40;;
53925;SDS011;39836;52.754;6.866;2023-08-06T17:03:46;7.32;;;4.53;;
53925;SDS011;39836;52.754;6.866;2023-08-06T17:10:56;8.02;;;4.82;;
53925;SDS011;39836;52.754;6.866;2023-08-06T17:13:23;8.68;;;5.15;;
53925;SDS011;39836;52.754;6.866;2023-08-06T17:15:59;7.32;;;4.90;;
53925;SDS011;39836;52.754;6.866;2023-08-06T17:18:25;8.15;;;4.70;;
53925;SDS011;39836;52.754;6.866;2023-08-06T17:20:51;7.05;;;4.90;;
53925;SDS011;39836;52.754;6.866;2023-08-06T17:23:23;8.15;;;4.50;;
53925;SDS011;39836;52.754;6.866;2023-08-06T17:30:05;8.70;;;4.38;;
53925;SDS011;39836;52.754;6.866;2023-08-06T17:55:22;7.45;;;3.72;;
53925;SDS011;39836;52.754;6.866;2023-08-06T19:07:46;12.13;;;2.80;;
53925;SDS011;39836;52.754;6.866;2023-08-06T19:20:42;11.35;;;3.47;;
53925;SDS011;39836;52.754;6.866;2023-08-06T19:23:09;9.98;;;2.88;;
53925;SDS011;39836;52.754;6.866;2023-08-06T19:25:46;12.27;;;3.28;;
53925;SDS011;39836;52.754;6.866;2023-08-06T19:28:14;10.73;;;3.13;;
53925;SDS011;39836;52.754;6.866;2023-08-06T19:41:03;10.27;;;3.40;;
53925;SDS011;39836;52.754;6.866;2023-08-06T19:43:31;13.40;;;3.05;;
53925;SDS011;39836;52.754;6.866;2023-08-06T19:46:02;10.63;;;2.65;;
53925;SDS011;39836;52.754;6.866;2023-08-06T19:48:31;13.85;;;3.20;;
53925;SDS011;39836;52.754;6.866;2023-08-06T20:15:14;10.85;;;2.58;;
53925;SDS011;39836;52.754;6.866;2023-08-06T20:57:45;8.77;;;2.28;;
53925;SDS011;39836;52.754;6.866;2023-08-06T21:00:12;7.25;;;2.08;;
53925;SDS011;39836;52.754;6.866;2023-08-06T21:09:03;13.07;;;2.13;;
53925;SDS011;39836;52.754;6.866;2023-08-06T21:11:31;9.52;;;2.05;;
53925;SDS011;39836;52.754;6.866;2023-08-06T21:13:56;11.00;;;2.05;;
53925;SDS011;39836;52.754;6.866;2023-08-06T21:16:23;10.80;;;2.22;;
53925;SDS011;39836;52.754;6.866;2023-08-06T21:18:49;8.25;;;1.83;;
53925;SDS011;39836;52.754;6.866;2023-08-06T21:21:14;10.15;;;2.65;;
53925;SDS011;39836;52.754;6.866;2023-08-06T21:23:40;9.55;;;2.47;;
53925;SDS011;39836;52.754;6.866;2023-08-06T21:26:06;8.82;;;1.95;;
53925;SDS011;39836;52.754;6.866;2023-08-06T21:28:32;10.57;;;2.25;;
53925;SDS011;39836;52.754;6.866;2023-08-06T21:31:03;9.23;;;2.17;;
53925;SDS011;39836;52.754;6.866;2023-08-06T21:33:31;13.60;;;2.17;;
53925;SDS011;39836;52.754;6.866;2023-08-06T21:36:04;9.35;;;2.30;;
